sensor_id;sensor_type;location;lat;lon;timestamp;P1;durP1;ratioP1;P2;durP2;ratioP2
53781;SDS011;39692;53.114;7.060;2023-05-07T00:00:12;17.70;;;11.05;;
53781;SDS011;39692;53.114;7.060;2023-05-07T00:02:40;19.02;;;11.05;;
53781;SDS011;39692;53.114;7.060;2023-05-07T00:05:06;20.88;;;12.20;;
53781;SDS011;39692;53.114;7.060;2023-05-07T00:07:33;21.08;;;12.35;;
53781;SDS011;39692;53.114;7.060;2023-05-07T00:09:59;19.20;;;11.60;;
53781;SDS011;39692;53.114;7.060;2023-05-07T00:12:25;21.73;;;12.20;;
53781;SDS011;39692;53.114;7.060;2023-05-07T00:14:51;21.67;;;12.82;;
53781;SDS011;39692;53.114;7.060;2023-05-07T00:17:17;19.55;;;11.70;;
53781;SDS011;39692;53.114;7.060;2023-05-07T00:19:43;22.83;;;13.10;;
53781;SDS011;39692;53.114;7.060;2023-05-07T00:22:09;22.05;;;11.60;;
53781;SDS011;39692;53.114;7.060;2023-05-07T00:24:35;20.90;;;11.68;;
53781;SDS011;39692;53.114;7.060;2023-05-07T00:27:01;19.45;;;11.15;;
53781;SDS011;39692;53.114;7.060;2023-05-07T00:29:28;18.13;;;10.57;;
53781;SDS011;39692;53.114;7.060;2023-05-07T00:31:54;23.05;;;12.63;;
53781;SDS011;39692;53.114;7.060;2023-05-07T00:34:20;22.42;;;10.60;;
53781;SDS011;39692;53.114;7.060;2023-05-07T00:36:46;21.40;;;11.23;;
53781;SDS011;39692;53.114;7.060;2023-05-07T00:39:12;17.50;;;11.43;;
53781;SDS011;39692;53.114;7.060;2023-05-07T00:41:38;16.63;;;10.68;;
53781;SDS011;39692;53.114;7.060;2023-05-07T00:44:04;16.50;;;10.10;;
53781;SDS011;39692;53.114;7.060;2023-05-07T00:46:30;18.58;;;11.38;;
53781;SDS011;39692;53.114;7.060;2023-05-07T00:48:56;18.77;;;11.82;;
53781;SDS011;39692;53.114;7.060;2023-05-07T00:51:23;19.38;;;11.48;;
53781;SDS011;39692;53.114;7.060;2023-05-07T00:53:52;19.85;;;11.63;;
53781;SDS011;39692;53.114;7.060;2023-05-07T00:56:20;19.08;;;10.60;;
53781;SDS011;39692;53.114;7.060;2023-05-07T00:58:46;18.58;;;11.57;;
53781;SDS011;39692;53.114;7.060;2023-05-07T01:01:12;19.30;;;12.07;;
53781;SDS011;39692;53.114;7.060;2023-05-07T01:03:40;19.38;;;11.30;;
53781;SDS011;39692;53.114;7.060;2023-05-07T01:06:08;20.23;;;11.27;;
53781;SDS011;39692;53.114;7.060;2023-05-07T01:08:34;22.40;;;12.48;;
53781;SDS011;39692;53.114;7.060;2023-05-07T01:11:01;21.83;;;12.02;;
53781;SDS011;39692;53.114;7.060;2023-05-07T01:13:27;22.67;;;13.60;;
53781;SDS011;39692;53.114;7.060;2023-05-07T01:15:54;21.65;;;12.40;;
53781;SDS011;39692;53.114;7.060;2023-05-07T01:18:20;21.15;;;11.10;;
53781;SDS011;39692;53.114;7.060;2023-05-07T01:20:46;23.83;;;14.18;;
53781;SDS011;39692;53.114;7.060;2023-05-07T01:23:13;18.92;;;11.93;;
53781;SDS011;39692;53.114;7.060;2023-05-07T01:25:39;19.77;;;11.68;;
53781;SDS011;39692;53.114;7.060;2023-05-07T01:28:05;23.33;;;12.20;;
53781;SDS011;39692;53.114;7.060;2023-05-07T01:30:31;19.98;;;11.02;;
53781;SDS011;39692;53.114;7.060;2023-05-07T01:35:27;20.80;;;12.35;;
53781;SDS011;39692;53.114;7.060;2023-05-07T01:37:54;18.55;;;11.48;;
53781;SDS011;39692;53.114;7.060;2023-05-07T01:40:20;20.65;;;10.95;;
53781;SDS011;39692;53.114;7.060;2023-05-07T01:42:47;26.35;;;12.30;;
53781;SDS011;39692;53.114;7.060;2023-05-07T01:45:13;19.52;;;13.05;;
53781;SDS011;39692;53.114;7.060;2023-05-07T01:47:39;21.10;;;11.85;;
53781;SDS011;39692;53.114;7.060;2023-05-07T01:50:05;22.08;;;12.85;;
53781;SDS011;39692;53.114;7.060;2023-05-07T01:52:38;21.38;;;13.07;;
53781;SDS011;39692;53.114;7.060;2023-05-07T01:55:05;21.52;;;12.73;;
53781;SDS011;39692;53.114;7.060;2023-05-07T01:57:31;22.77;;;13.43;;
53781;SDS011;39692;53.114;7.060;2023-05-07T01:59:57;24.77;;;12.43;;
53781;SDS011;39692;53.114;7.060;2023-05-07T02:02:23;20.52;;;13.32;;
53781;SDS011;39692;53.114;7.060;2023-05-07T02:04:49;23.98;;;13.02;;
53781;SDS011;39692;53.114;7.060;2023-05-07T02:07:16;26.55;;;12.85;;
53781;SDS011;39692;53.114;7.060;2023-05-07T02:09:42;21.23;;;12.55;;
53781;SDS011;39692;53.114;7.060;2023-05-07T02:12:09;21.48;;;12.00;;
53781;SDS011;39692;53.114;7.060;2023-05-07T02:14:35;19.55;;;11.77;;
53781;SDS011;39692;53.114;7.060;2023-05-07T02:17:01;21.60;;;12.10;;
53781;SDS011;39692;53.114;7.060;2023-05-07T02:19:27;23.63;;;13.20;;
53781;SDS011;39692;53.114;7.060;2023-05-07T02:21:53;23.45;;;12.82;;
53781;SDS011;39692;53.114;7.060;2023-05-07T02:24:19;21.52;;;12.13;;
53781;SDS011;39692;53.114;7.060;2023-05-07T02:26:45;19.55;;;12.73;;
53781;SDS011;39692;53.114;7.060;2023-05-07T02:29:11;21.38;;;11.50;;
53781;SDS011;39692;53.114;7.060;2023-05-07T02:31:37;20.15;;;12.73;;
53781;SDS011;39692;53.114;7.060;2023-05-07T02:34:03;23.23;;;13.52;;
53781;SDS011;39692;53.114;7.060;2023-05-07T02:36:30;24.77;;;12.55;;
53781;SDS011;39692;53.114;7.060;2023-05-07T02:38:56;20.88;;;12.02;;
53781;SDS011;39692;53.114;7.060;2023-05-07T02:41:22;19.83;;;12.43;;
53781;SDS011;39692;53.114;7.060;2023-05-07T02:43:48;21.38;;;12.88;;
53781;SDS011;39692;53.114;7.060;2023-05-07T02:46:14;17.25;;;11.65;;
53781;SDS011;39692;53.114;7.060;2023-05-07T02:48:40;20.17;;;11.43;;
53781;SDS011;39692;53.114;7.060;2023-05-07T02:51:06;20.10;;;12.32;;
53781;SDS011;39692;53.114;7.060;2023-05-07T02:53:32;26.20;;;14.02;;
53781;SDS011;39692;53.114;7.060;2023-05-07T02:55:59;20.08;;;11.75;;
53781;SDS011;39692;53.114;7.060;2023-05-07T02:58:26;19.65;;;12.50;;
53781;SDS011;39692;53.114;7.060;2023-05-07T03:00:52;28.58;;;14.05;;
53781;SDS011;39692;53.114;7.060;2023-05-07T03:03:19;24.05;;;13.63;;
53781;SDS011;39692;53.114;7.060;2023-05-07T03:05:45;25.48;;;13.63;;
53781;SDS011;39692;53.114;7.060;2023-05-07T03:08:11;23.40;;;12.18;;
53781;SDS011;39692;53.114;7.060;2023-05-07T03:10:37;24.23;;;13.82;;
53781;SDS011;39692;53.114;7.060;2023-05-07T03:13:04;22.63;;;13.27;;
53781;SDS011;39692;53.114;7.060;2023-05-07T03:15:30;22.17;;;12.80;;
53781;SDS011;39692;53.114;7.060;2023-05-07T03:17:56;17.08;;;10.75;;
53781;SDS011;39692;53.114;7.060;2023-05-07T03:20:22;20.35;;;12.27;;
53781;SDS011;39692;53.114;7.060;2023-05-07T03:22:48;22.40;;;12.40;;
53781;SDS011;39692;53.114;7.060;2023-05-07T03:25:14;19.73;;;12.65;;
53781;SDS011;39692;53.114;7.060;2023-05-07T03:27:40;24.52;;;12.65;;
53781;SDS011;39692;53.114;7.060;2023-05-07T03:30:09;20.50;;;12.65;;
53781;SDS011;39692;53.114;7.060;2023-05-07T03:32:36;20.23;;;12.18;;
53781;SDS011;39692;53.114;7.060;2023-05-07T03:35:02;18.88;;;11.43;;
53781;SDS011;39692;53.114;7.060;2023-05-07T03:37:28;16.15;;;11.05;;
53781;SDS011;39692;53.114;7.060;2023-05-07T03:39:54;18.63;;;11.63;;
53781;SDS011;39692;53.114;7.060;2023-05-07T03:42:20;22.90;;;12.18;;
53781;SDS011;39692;53.114;7.060;2023-05-07T03:44:46;19.08;;;11.50;;
53781;SDS011;39692;53.114;7.060;2023-05-07T03:47:12;19.77;;;11.05;;
53781;SDS011;39692;53.114;7.060;2023-05-07T03:49:39;20.08;;;11.88;;
53781;SDS011;39692;53.114;7.060;2023-05-07T03:52:05;19.77;;;11.68;;
53781;SDS011;39692;53.114;7.060;2023-05-07T03:54:31;21.27;;;11.85;;
53781;SDS011;39692;53.114;7.060;2023-05-07T03:56:57;21.20;;;10.20;;
53781;SDS011;39692;53.114;7.060;2023-05-07T03:59:23;16.55;;;9.32;;
53781;SDS011;39692;53.114;7.060;2023-05-07T04:01:49;16.10;;;10.65;;
53781;SDS011;39692;53.114;7.060;2023-05-07T04:04:15;15.10;;;9.77;;
53781;SDS011;39692;53.114;7.060;2023-05-07T04:06:41;17.63;;;10.70;;
53781;SDS011;39692;53.114;7.060;2023-05-07T04:09:07;21.35;;;11.63;;
53781;SDS011;39692;53.114;7.060;2023-05-07T04:11:34;16.80;;;10.30;;
53781;SDS011;39692;53.114;7.060;2023-05-07T04:14:00;16.13;;;10.65;;
53781;SDS011;39692;53.114;7.060;2023-05-07T04:16:26;18.65;;;12.07;;
53781;SDS011;39692;53.114;7.060;2023-05-07T04:18:52;18.88;;;10.90;;
53781;SDS011;39692;53.114;7.060;2023-05-07T04:21:19;19.95;;;11.18;;
53781;SDS011;39692;53.114;7.060;2023-05-07T04:23:46;18.77;;;11.65;;
53781;SDS011;39692;53.114;7.060;2023-05-07T04:26:12;19.88;;;11.88;;
53781;SDS011;39692;53.114;7.060;2023-05-07T04:28:38;23.30;;;10.75;;
53781;SDS011;39692;53.114;7.060;2023-05-07T04:31:05;17.13;;;10.05;;
53781;SDS011;39692;53.114;7.060;2023-05-07T04:33:31;18.17;;;10.18;;
53781;SDS011;39692;53.114;7.060;2023-05-07T04:35:58;21.10;;;11.73;;
53781;SDS011;39692;53.114;7.060;2023-05-07T04:38:28;16.23;;;9.90;;
53781;SDS011;39692;53.114;7.060;2023-05-07T04:40:54;17.30;;;10.88;;
53781;SDS011;39692;53.114;7.060;2023-05-07T04:43:21;18.88;;;9.93;;
53781;SDS011;39692;53.114;7.060;2023-05-07T04:45:47;16.23;;;10.32;;
53781;SDS011;39692;53.114;7.060;2023-05-07T04:48:14;15.73;;;9.02;;
53781;SDS011;39692;53.114;7.060;2023-05-07T04:50:40;15.50;;;9.10;;
53781;SDS011;39692;53.114;7.060;2023-05-07T04:53:06;18.95;;;9.68;;
53781;SDS011;39692;53.114;7.060;2023-05-07T04:55:32;21.30;;;11.35;;
53781;SDS011;39692;53.114;7.060;2023-05-07T04:57:58;17.40;;;10.88;;
53781;SDS011;39692;53.114;7.060;2023-05-07T05:00:26;17.40;;;10.63;;
53781;SDS011;39692;53.114;7.060;2023-05-07T05:02:52;18.40;;;11.27;;
53781;SDS011;39692;53.114;7.060;2023-05-07T05:05:18;13.90;;;9.32;;
53781;SDS011;39692;53.114;7.060;2023-05-07T05:07:44;18.55;;;10.60;;
53781;SDS011;39692;53.114;7.060;2023-05-07T05:10:10;15.48;;;10.00;;
53781;SDS011;39692;53.114;7.060;2023-05-07T05:12:36;16.55;;;10.73;;
53781;SDS011;39692;53.114;7.060;2023-05-07T05:15:03;22.02;;;10.57;;
53781;SDS011;39692;53.114;7.060;2023-05-07T05:17:29;17.80;;;10.93;;
53781;SDS011;39692;53.114;7.060;2023-05-07T05:19:55;18.38;;;11.85;;
53781;SDS011;39692;53.114;7.060;2023-05-07T05:22:21;18.25;;;10.52;;
53781;SDS011;39692;53.114;7.060;2023-05-07T05:24:48;20.05;;;10.07;;
53781;SDS011;39692;53.114;7.060;2023-05-07T05:27:14;15.63;;;9.88;;
53781;SDS011;39692;53.114;7.060;2023-05-07T05:29:40;23.13;;;11.55;;
53781;SDS011;39692;53.114;7.060;2023-05-07T05:32:06;21.15;;;12.10;;
53781;SDS011;39692;53.114;7.060;2023-05-07T05:34:32;17.48;;;11.43;;
53781;SDS011;39692;53.114;7.060;2023-05-07T05:36:58;17.70;;;10.65;;
53781;SDS011;39692;53.114;7.060;2023-05-07T05:39:24;22.52;;;12.15;;
53781;SDS011;39692;53.114;7.060;2023-05-07T05:41:50;16.73;;;9.65;;
53781;SDS011;39692;53.114;7.060;2023-05-07T05:44:16;18.95;;;10.25;;
53781;SDS011;39692;53.114;7.060;2023-05-07T05:46:42;17.10;;;10.57;;
53781;SDS011;39692;53.114;7.060;2023-05-07T05:49:09;17.98;;;10.90;;
53781;SDS011;39692;53.114;7.060;2023-05-07T05:51:35;17.95;;;10.40;;
53781;SDS011;39692;53.114;7.060;2023-05-07T05:54:01;15.23;;;9.63;;
53781;SDS011;39692;53.114;7.060;2023-05-07T05:56:27;17.40;;;10.07;;
53781;SDS011;39692;53.114;7.060;2023-05-07T05:58:53;19.02;;;10.88;;
53781;SDS011;39692;53.114;7.060;2023-05-07T06:01:19;19.52;;;10.65;;
53781;SDS011;39692;53.114;7.060;2023-05-07T06:03:45;14.32;;;8.13;;
53781;SDS011;39692;53.114;7.060;2023-05-07T06:06:11;19.17;;;10.00;;
53781;SDS011;39692;53.114;7.060;2023-05-07T06:08:37;17.98;;;9.95;;
53781;SDS011;39692;53.114;7.060;2023-05-07T06:11:03;14.98;;;9.93;;
53781;SDS011;39692;53.114;7.060;2023-05-07T06:13:29;15.70;;;9.93;;
53781;SDS011;39692;53.114;7.060;2023-05-07T06:15:55;24.58;;;10.38;;
53781;SDS011;39692;53.114;7.060;2023-05-07T06:18:21;15.85;;;9.40;;
53781;SDS011;39692;53.114;7.060;2023-05-07T06:20:47;19.52;;;10.80;;
53781;SDS011;39692;53.114;7.060;2023-05-07T06:23:14;16.30;;;9.45;;
53781;SDS011;39692;53.114;7.060;2023-05-07T06:25:40;17.80;;;10.25;;
53781;SDS011;39692;53.114;7.060;2023-05-07T06:28:06;17.60;;;10.30;;
53781;SDS011;39692;53.114;7.060;2023-05-07T06:30:34;15.98;;;10.25;;
53781;SDS011;39692;53.114;7.060;2023-05-07T06:33:00;16.27;;;10.65;;
53781;SDS011;39692;53.114;7.060;2023-05-07T06:35:26;20.33;;;10.00;;
53781;SDS011;39692;53.114;7.060;2023-05-07T06:37:52;21.25;;;10.85;;
53781;SDS011;39692;53.114;7.060;2023-05-07T06:40:18;15.05;;;9.27;;
53781;SDS011;39692;53.114;7.060;2023-05-07T06:42:44;17.73;;;10.05;;
53781;SDS011;39692;53.114;7.060;2023-05-07T06:45:10;16.40;;;9.45;;
53781;SDS011;39692;53.114;7.060;2023-05-07T06:47:36;15.95;;;9.43;;
53781;SDS011;39692;53.114;7.060;2023-05-07T06:50:02;17.77;;;11.00;;
53781;SDS011;39692;53.114;7.060;2023-05-07T06:52:29;20.38;;;9.68;;
53781;SDS011;39692;53.114;7.060;2023-05-07T06:54:55;20.05;;;10.10;;
53781;SDS011;39692;53.114;7.060;2023-05-07T06:57:21;17.63;;;9.60;;
53781;SDS011;39692;53.114;7.060;2023-05-07T06:59:47;16.00;;;9.18;;
53781;SDS011;39692;53.114;7.060;2023-05-07T07:02:13;18.33;;;9.70;;
53781;SDS011;39692;53.114;7.060;2023-05-07T07:04:39;18.17;;;9.38;;
53781;SDS011;39692;53.114;7.060;2023-05-07T07:07:06;17.25;;;10.13;;
53781;SDS011;39692;53.114;7.060;2023-05-07T07:09:32;15.93;;;8.50;;
53781;SDS011;39692;53.114;7.060;2023-05-07T07:11:58;21.17;;;11.38;;
53781;SDS011;39692;53.114;7.060;2023-05-07T07:14:25;16.75;;;10.73;;
53781;SDS011;39692;53.114;7.060;2023-05-07T07:16:51;18.02;;;9.15;;
53781;SDS011;39692;53.114;7.060;2023-05-07T07:19:17;18.50;;;10.27;;
53781;SDS011;39692;53.114;7.060;2023-05-07T07:21:45;17.98;;;10.00;;
53781;SDS011;39692;53.114;7.060;2023-05-07T07:24:11;17.13;;;10.15;;
53781;SDS011;39692;53.114;7.060;2023-05-07T07:26:37;17.83;;;10.52;;
53781;SDS011;39692;53.114;7.060;2023-05-07T07:29:04;18.80;;;11.18;;
53781;SDS011;39692;53.114;7.060;2023-05-07T07:31:31;17.48;;;10.20;;
53781;SDS011;39692;53.114;7.060;2023-05-07T07:33:57;19.63;;;12.10;;
53781;SDS011;39692;53.114;7.060;2023-05-07T07:36:24;21.70;;;11.30;;
53781;SDS011;39692;53.114;7.060;2023-05-07T07:38:52;19.20;;;10.48;;
53781;SDS011;39692;53.114;7.060;2023-05-07T07:41:18;19.88;;;12.13;;
53781;SDS011;39692;53.114;7.060;2023-05-07T07:43:44;20.23;;;12.00;;
53781;SDS011;39692;53.114;7.060;2023-05-07T07:46:12;21.40;;;11.23;;
53781;SDS011;39692;53.114;7.060;2023-05-07T07:48:38;19.00;;;11.05;;
53781;SDS011;39692;53.114;7.060;2023-05-07T07:51:04;18.95;;;11.32;;
53781;SDS011;39692;53.114;7.060;2023-05-07T07:53:30;17.08;;;10.95;;
53781;SDS011;39692;53.114;7.060;2023-05-07T07:55:56;19.17;;;12.00;;
53781;SDS011;39692;53.114;7.060;2023-05-07T07:58:22;18.88;;;12.15;;
53781;SDS011;39692;53.114;7.060;2023-05-07T08:00:49;21.23;;;11.82;;
53781;SDS011;39692;53.114;7.060;2023-05-07T08:03:16;21.40;;;11.95;;
53781;SDS011;39692;53.114;7.060;2023-05-07T08:05:42;22.15;;;12.43;;
53781;SDS011;39692;53.114;7.060;2023-05-07T08:08:09;17.05;;;10.45;;
53781;SDS011;39692;53.114;7.060;2023-05-07T08:10:35;23.45;;;13.10;;
53781;SDS011;39692;53.114;7.060;2023-05-07T08:13:03;20.45;;;10.90;;
53781;SDS011;39692;53.114;7.060;2023-05-07T08:15:29;17.73;;;10.93;;
53781;SDS011;39692;53.114;7.060;2023-05-07T08:17:55;17.83;;;11.20;;
53781;SDS011;39692;53.114;7.060;2023-05-07T08:20:25;19.33;;;11.30;;
53781;SDS011;39692;53.114;7.060;2023-05-07T08:22:51;18.10;;;10.98;;
53781;SDS011;39692;53.114;7.060;2023-05-07T08:25:17;22.10;;;11.88;;
53781;SDS011;39692;53.114;7.060;2023-05-07T08:27:43;15.73;;;10.82;;
53781;SDS011;39692;53.114;7.060;2023-05-07T08:30:10;18.88;;;11.27;;
53781;SDS011;39692;53.114;7.060;2023-05-07T08:32:36;18.50;;;11.07;;
53781;SDS011;39692;53.114;7.060;2023-05-07T08:35:02;20.50;;;10.82;;
53781;SDS011;39692;53.114;7.060;2023-05-07T08:37:29;18.17;;;11.38;;
53781;SDS011;39692;53.114;7.060;2023-05-07T08:39:55;18.25;;;10.57;;
53781;SDS011;39692;53.114;7.060;2023-05-07T08:42:23;17.38;;;11.20;;
53781;SDS011;39692;53.114;7.060;2023-05-07T08:44:50;19.42;;;11.90;;
53781;SDS011;39692;53.114;7.060;2023-05-07T08:47:20;19.25;;;11.85;;
53781;SDS011;39692;53.114;7.060;2023-05-07T08:49:48;22.05;;;11.48;;
53781;SDS011;39692;53.114;7.060;2023-05-07T08:52:15;18.75;;;11.30;;
53781;SDS011;39692;53.114;7.060;2023-05-07T08:54:41;17.27;;;10.90;;
53781;SDS011;39692;53.114;7.060;2023-05-07T08:57:07;18.08;;;11.07;;
53781;SDS011;39692;53.114;7.060;2023-05-07T08:59:34;18.27;;;10.70;;
53781;SDS011;39692;53.114;7.060;2023-05-07T09:02:00;16.40;;;11.27;;
53781;SDS011;39692;53.114;7.060;2023-05-07T09:04:27;19.40;;;13.18;;
53781;SDS011;39692;53.114;7.060;2023-05-07T09:06:53;15.65;;;10.88;;
53781;SDS011;39692;53.114;7.060;2023-05-07T09:09:21;19.30;;;11.15;;
53781;SDS011;39692;53.114;7.060;2023-05-07T09:11:47;17.88;;;12.18;;
53781;SDS011;39692;53.114;7.060;2023-05-07T09:14:13;16.80;;;11.23;;
53781;SDS011;39692;53.114;7.060;2023-05-07T09:16:39;16.30;;;13.32;;
53781;SDS011;39692;53.114;7.060;2023-05-07T09:19:05;16.73;;;13.00;;
53781;SDS011;39692;53.114;7.060;2023-05-07T09:21:32;16.48;;;13.43;;
53781;SDS011;39692;53.114;7.060;2023-05-07T09:23:58;16.67;;;12.57;;
53781;SDS011;39692;53.114;7.060;2023-05-07T09:26:24;19.92;;;10.07;;
53781;SDS011;39692;53.114;7.060;2023-05-07T09:28:50;16.95;;;13.38;;
53781;SDS011;39692;53.114;7.060;2023-05-07T09:31:17;15.13;;;13.00;;
53781;SDS011;39692;53.114;7.060;2023-05-07T09:33:43;17.17;;;13.70;;
53781;SDS011;39692;53.114;7.060;2023-05-07T09:36:09;15.90;;;11.23;;
53781;SDS011;39692;53.114;7.060;2023-05-07T09:38:36;18.00;;;13.55;;
53781;SDS011;39692;53.114;7.060;2023-05-07T09:43:31;15.80;;;12.90;;
53781;SDS011;39692;53.114;7.060;2023-05-07T09:45:58;17.10;;;12.02;;
53781;SDS011;39692;53.114;7.060;2023-05-07T09:48:25;15.35;;;12.15;;
53781;SDS011;39692;53.114;7.060;2023-05-07T09:50:51;16.75;;;12.70;;
53781;SDS011;39692;53.114;7.060;2023-05-07T09:53:23;15.48;;;13.45;;
53781;SDS011;39692;53.114;7.060;2023-05-07T09:55:50;15.18;;;11.93;;
53781;SDS011;39692;53.114;7.060;2023-05-07T09:58:17;16.17;;;14.32;;
53781;SDS011;39692;53.114;7.060;2023-05-07T10:00:44;16.30;;;14.57;;
53781;SDS011;39692;53.114;7.060;2023-05-07T10:03:11;15.77;;;13.25;;
53781;SDS011;39692;53.114;7.060;2023-05-07T10:05:39;16.10;;;13.88;;
53781;SDS011;39692;53.114;7.060;2023-05-07T10:08:06;14.68;;;13.18;;
53781;SDS011;39692;53.114;7.060;2023-05-07T10:10:32;14.38;;;13.05;;
53781;SDS011;39692;53.114;7.060;2023-05-07T10:13:00;14.60;;;13.02;;
53781;SDS011;39692;53.114;7.060;2023-05-07T10:15:26;14.57;;;13.07;;
53781;SDS011;39692;53.114;7.060;2023-05-07T10:17:55;14.27;;;12.82;;
53781;SDS011;39692;53.114;7.060;2023-05-07T10:20:21;14.63;;;13.20;;
53781;SDS011;39692;53.114;7.060;2023-05-07T10:22:47;14.50;;;12.55;;
53781;SDS011;39692;53.114;7.060;2023-05-07T10:25:16;15.13;;;13.63;;
53781;SDS011;39692;53.114;7.060;2023-05-07T10:27:43;14.63;;;13.15;;
53781;SDS011;39692;53.114;7.060;2023-05-07T10:32:56;15.18;;;13.57;;
53781;SDS011;39692;53.114;7.060;2023-05-07T10:35:30;14.27;;;12.88;;
53781;SDS011;39692;53.114;7.060;2023-05-07T10:37:57;15.73;;;13.63;;
53781;SDS011;39692;53.114;7.060;2023-05-07T10:40:24;14.15;;;12.68;;
53781;SDS011;39692;53.114;7.060;2023-05-07T10:43:00;14.10;;;12.65;;
53781;SDS011;39692;53.114;7.060;2023-05-07T10:45:26;14.48;;;12.88;;
53781;SDS011;39692;53.114;7.060;2023-05-07T10:48:05;14.15;;;12.68;;
53781;SDS011;39692;53.114;7.060;2023-05-07T10:50:31;13.50;;;12.18;;
53781;SDS011;39692;53.114;7.060;2023-05-07T10:55:42;13.02;;;11.70;;
53781;SDS011;39692;53.114;7.060;2023-05-07T10:58:27;13.50;;;12.18;;
53781;SDS011;39692;53.114;7.060;2023-05-07T11:01:00;14.00;;;12.50;;
53781;SDS011;39692;53.114;7.060;2023-05-07T11:03:27;13.10;;;11.70;;
53781;SDS011;39692;53.114;7.060;2023-05-07T11:08:55;13.68;;;12.15;;
53781;SDS011;39692;53.114;7.060;2023-05-07T11:16:31;13.13;;;11.85;;
53781;SDS011;39692;53.114;7.060;2023-05-07T11:18:58;13.60;;;11.98;;
53781;SDS011;39692;53.114;7.060;2023-05-07T11:24:00;13.25;;;11.95;;
53781;SDS011;39692;53.114;7.060;2023-05-07T11:26:27;13.82;;;12.43;;
53781;SDS011;39692;53.114;7.060;2023-05-07T11:28:53;13.23;;;11.93;;
53781;SDS011;39692;53.114;7.060;2023-05-07T11:31:20;13.45;;;12.10;;
53781;SDS011;39692;53.114;7.060;2023-05-07T11:33:47;13.20;;;11.85;;
53781;SDS011;39692;53.114;7.060;2023-05-07T11:36:14;13.57;;;12.23;;
53781;SDS011;39692;53.114;7.060;2023-05-07T11:38:40;13.95;;;12.65;;
53781;SDS011;39692;53.114;7.060;2023-05-07T11:41:06;14.18;;;12.75;;
53781;SDS011;39692;53.114;7.060;2023-05-07T11:43:33;14.98;;;13.48;;
53781;SDS011;39692;53.114;7.060;2023-05-07T11:46:10;13.98;;;12.57;;
53781;SDS011;39692;53.114;7.060;2023-05-07T11:48:37;14.68;;;13.23;;
53781;SDS011;39692;53.114;7.060;2023-05-07T11:51:04;14.82;;;13.30;;
53781;SDS011;39692;53.114;7.060;2023-05-07T11:53:37;16.17;;;14.40;;
53781;SDS011;39692;53.114;7.060;2023-05-07T11:56:07;14.00;;;12.57;;
53781;SDS011;39692;53.114;7.060;2023-05-07T11:58:33;14.57;;;13.05;;
53781;SDS011;39692;53.114;7.060;2023-05-07T12:00:59;14.50;;;13.10;;
53781;SDS011;39692;53.114;7.060;2023-05-07T12:03:25;15.07;;;13.57;;
53781;SDS011;39692;53.114;7.060;2023-05-07T12:05:51;16.13;;;14.40;;
53781;SDS011;39692;53.114;7.060;2023-05-07T12:08:18;15.55;;;14.05;;
53781;SDS011;39692;53.114;7.060;2023-05-07T12:10:45;14.10;;;12.80;;
53781;SDS011;39692;53.114;7.060;2023-05-07T12:13:19;16.08;;;13.70;;
53781;SDS011;39692;53.114;7.060;2023-05-07T12:15:46;14.27;;;12.93;;
53781;SDS011;39692;53.114;7.060;2023-05-07T12:18:12;14.32;;;13.02;;
53781;SDS011;39692;53.114;7.060;2023-05-07T12:20:38;14.60;;;13.20;;
53781;SDS011;39692;53.114;7.060;2023-05-07T12:23:05;15.30;;;13.80;;
53781;SDS011;39692;53.114;7.060;2023-05-07T12:25:31;14.25;;;12.95;;
53781;SDS011;39692;53.114;7.060;2023-05-07T12:27:59;14.30;;;12.90;;
53781;SDS011;39692;53.114;7.060;2023-05-07T12:30:25;13.70;;;12.40;;
53781;SDS011;39692;53.114;7.060;2023-05-07T12:32:52;14.23;;;12.32;;
53781;SDS011;39692;53.114;7.060;2023-05-07T12:35:26;14.00;;;12.65;;
53781;SDS011;39692;53.114;7.060;2023-05-07T12:37:58;13.45;;;12.25;;
53781;SDS011;39692;53.114;7.060;2023-05-07T12:40:38;13.20;;;11.90;;
53781;SDS011;39692;53.114;7.060;2023-05-07T12:43:05;13.15;;;11.85;;
53781;SDS011;39692;53.114;7.060;2023-05-07T12:45:31;14.13;;;12.77;;
53781;SDS011;39692;53.114;7.060;2023-05-07T12:48:00;13.68;;;12.38;;
53781;SDS011;39692;53.114;7.060;2023-05-07T12:50:30;13.68;;;12.38;;
53781;SDS011;39692;53.114;7.060;2023-05-07T12:52:57;13.57;;;12.27;;
53781;SDS011;39692;53.114;7.060;2023-05-07T12:55:23;13.23;;;11.88;;
53781;SDS011;39692;53.114;7.060;2023-05-07T12:57:49;13.48;;;12.07;;
53781;SDS011;39692;53.114;7.060;2023-05-07T13:00:16;12.52;;;11.35;;
53781;SDS011;39692;53.114;7.060;2023-05-07T13:02:43;13.30;;;12.10;;
53781;SDS011;39692;53.114;7.060;2023-05-07T13:05:10;12.60;;;11.43;;
53781;SDS011;39692;53.114;7.060;2023-05-07T13:07:36;13.40;;;12.20;;
53781;SDS011;39692;53.114;7.060;2023-05-07T13:10:02;13.57;;;12.18;;
53781;SDS011;39692;53.114;7.060;2023-05-07T13:12:29;13.18;;;11.98;;
53781;SDS011;39692;53.114;7.060;2023-05-07T13:14:55;13.38;;;12.07;;
53781;SDS011;39692;53.114;7.060;2023-05-07T13:17:21;13.43;;;12.15;;
53781;SDS011;39692;53.114;7.060;2023-05-07T13:19:47;13.10;;;11.85;;
53781;SDS011;39692;53.114;7.060;2023-05-07T13:22:13;14.95;;;13.55;;
53781;SDS011;39692;53.114;7.060;2023-05-07T13:24:39;13.80;;;12.50;;
53781;SDS011;39692;53.114;7.060;2023-05-07T13:27:07;13.55;;;12.25;;
53781;SDS011;39692;53.114;7.060;2023-05-07T13:29:33;14.25;;;12.85;;
53781;SDS011;39692;53.114;7.060;2023-05-07T13:31:59;14.38;;;13.07;;
53781;SDS011;39692;53.114;7.060;2023-05-07T13:34:25;12.38;;;11.18;;
53781;SDS011;39692;53.114;7.060;2023-05-07T13:36:51;13.00;;;11.50;;
53781;SDS011;39692;53.114;7.060;2023-05-07T13:39:17;12.82;;;11.52;;
53781;SDS011;39692;53.114;7.060;2023-05-07T13:41:44;14.02;;;12.73;;
53781;SDS011;39692;53.114;7.060;2023-05-07T13:44:10;14.20;;;12.70;;
53781;SDS011;39692;53.114;7.060;2023-05-07T13:46:36;13.20;;;11.90;;
53781;SDS011;39692;53.114;7.060;2023-05-07T13:49:02;14.45;;;13.05;;
53781;SDS011;39692;53.114;7.060;2023-05-07T13:51:28;15.07;;;13.68;;
53781;SDS011;39692;53.114;7.060;2023-05-07T13:53:54;14.43;;;13.05;;
53781;SDS011;39692;53.114;7.060;2023-05-07T13:56:20;13.15;;;11.85;;
53781;SDS011;39692;53.114;7.060;2023-05-07T13:58:48;13.73;;;12.43;;
53781;SDS011;39692;53.114;7.060;2023-05-07T14:01:14;14.65;;;13.20;;
53781;SDS011;39692;53.114;7.060;2023-05-07T14:03:40;14.90;;;13.50;;
53781;SDS011;39692;53.114;7.060;2023-05-07T14:06:06;14.52;;;13.02;;
53781;SDS011;39692;53.114;7.060;2023-05-07T14:08:32;14.40;;;13.02;;
53781;SDS011;39692;53.114;7.060;2023-05-07T14:10:58;14.88;;;13.48;;
53781;SDS011;39692;53.114;7.060;2023-05-07T14:13:25;14.98;;;13.50;;
53781;SDS011;39692;53.114;7.060;2023-05-07T14:15:51;15.70;;;14.20;;
53781;SDS011;39692;53.114;7.060;2023-05-07T14:18:17;14.00;;;12.50;;
53781;SDS011;39692;53.114;7.060;2023-05-07T14:20:43;14.10;;;12.20;;
53781;SDS011;39692;53.114;7.060;2023-05-07T14:23:11;15.23;;;13.73;;
53781;SDS011;39692;53.114;7.060;2023-05-07T14:25:37;14.60;;;13.20;;
53781;SDS011;39692;53.114;7.060;2023-05-07T14:28:03;15.02;;;13.63;;
53781;SDS011;39692;53.114;7.060;2023-05-07T14:30:30;14.32;;;12.98;;
53781;SDS011;39692;53.114;7.060;2023-05-07T14:32:56;16.35;;;14.77;;
53781;SDS011;39692;53.114;7.060;2023-05-07T14:35:22;15.52;;;14.10;;
53781;SDS011;39692;53.114;7.060;2023-05-07T14:37:48;16.17;;;14.57;;
53781;SDS011;39692;53.114;7.060;2023-05-07T14:40:14;15.98;;;14.38;;